Flight Track Log - Related Links

Times and Time Zones

All times are in EST time to prevent confusion due to time zone crossing. See the AWE1492 flight status page for this flight to view local times or setup timezone preferences in your user account.

Time Position Orientation Groundspeed Altitude Reporting Facility
EST Latitude Longitude Course Direction KTS MPH feet Rate Location/Type
Sun 01:19:53 AM 37.7420 -122.3333 180° South  Level FlightAware Approximate
Sun 01:23:33 AM 37.6667 -122.3333 360° North 179 206 2,300  Level Northern Cal TRACON
Sun 01:24:33 AM 37.7167 -122.3333 332° Northwest 205 236 3,500 895 Climbing Northern Cal TRACON
Sun 01:25:27 AM 37.7667 -122.3667 353° North 243 280 4,000 1,190 Climbing Northern Cal TRACON
Sun 01:26:39 AM 37.8667 -122.3833 34° Northeast 292 336 6,000 1,682 Climbing Northern Cal TRACON
Sun 01:28:04 AM 37.9472 -122.3142 83° East 251 289 8,400 1,697 Climbing Oakland Center
Sun 01:29:04 AM 37.9567 -122.2114 83° East 247 284 10,100 1,300 Climbing Oakland Center
Sun 01:30:04 AM 37.9683 -122.0958 82° East 275 316 11,000 850 Climbing Oakland Center
Sun 01:31:04 AM 37.9819 -121.9722 83° East 320 368 11,800 950 Climbing Oakland Center
Sun 01:32:04 AM 37.9956 -121.8328 83° East 366 421 12,900 1,100 Climbing Oakland Center
Sun 01:33:04 AM 38.0067 -121.7089 84° East 384 442 14,000 1,150 Climbing Oakland Center
Sun 01:34:04 AM 38.0200 -121.5586 84° East 408 470 15,200 1,250 Climbing Oakland Center
Sun 01:35:04 AM 38.0333 -121.4086 83° East 426 490 16,500 1,250 Climbing Oakland Center
Sun 01:36:04 AM 38.0483 -121.2531 83° East 431 496 17,700 900 Climbing Oakland Center
Sun 01:37:04 AM 38.0631 -121.0947 78° East 442 509 18,300 850 Climbing Oakland Center
Sun 01:38:04 AM 38.0925 -120.9181 74° East 460 529 19,400 1,100 Climbing Oakland Center
Sun 01:39:04 AM 38.1278 -120.7569 77° East 465 535 20,500 1,050 Climbing Oakland Center
Sun 01:40:04 AM 38.1564 -120.5931 77° East 471 542 21,500 950 Climbing Oakland Center
Sun 01:41:04 AM 38.1872 -120.4264 77° East 471 542 22,400 1,000 Climbing Oakland Center
Sun 01:42:04 AM 38.2175 -120.2544 77° East 477 549 23,500 1,100 Climbing Oakland Center
Sun 01:43:04 AM 38.2475 -120.0875 78° East 477 549 24,600 1,100 Climbing Oakland Center
Sun 01:44:04 AM 38.2756 -119.9233 77° East 477 549 25,700 1,100 Climbing Oakland Center
Sun 01:45:04 AM 38.3050 -119.7561 79° East 477 549 26,800 1,100 Climbing Oakland Center
Sun 01:46:04 AM 38.3306 -119.5942 78° East 472 543 27,900 1,050 Climbing Oakland Center
Sun 01:47:04 AM 38.3556 -119.4400 78° East 472 543 28,900 550 Climbing Oakland Center
Sun 01:48:04 AM 38.3806 -119.2858 77° East 459 528 29,000 50 Climbing Oakland Center
Sun 01:49:04 AM 38.4114 -119.1208 78° East 471 542 29,000  Level Oakland Center
Sun 01:50:04 AM 38.4381 -118.9531 78° East 471 542 29,000  Level Oakland Center
Sun 01:51:04 AM 38.4664 -118.7853 77° East 476 548 29,000  Level Oakland Center
Sun 01:52:04 AM 38.4964 -118.6197 73° East 476 548 29,000  Level Oakland Center
Sun 01:53:04 AM 38.5347 -118.4567 74° East 471 542 29,000  Level Oakland Center
Sun 01:54:04 AM 38.5728 -118.2906 74° East 477 549 29,000  Level Oakland Center
Sun 01:55:04 AM 38.6086 -118.1272 73° East 477 549 29,000  Level Oakland Center
Sun 01:56:04 AM 38.6425 -117.9822 75° East 477 549 29,000  Level Oakland Center
Sun 01:57:37 AM 38.7006 -117.7100 74° East 479 551 29,000  Level Salt Lake Center
Sun 01:58:37 AM 38.7361 -117.5453 75° East 479 551 29,000  Level Salt Lake Center
Sun 01:59:38 AM 38.7714 -117.3806 74° East 477 549 29,000  Level Salt Lake Center
Sun 02:00:38 AM 38.8075 -117.2167 75° East 476 548 29,000  Level Salt Lake Center
Sun 02:01:38 AM 38.8422 -117.0517 75° East 476 548 29,000  Level Salt Lake Center
Sun 02:02:39 AM 38.8778 -116.8861 75° East 478 550 29,000  Level Salt Lake Center
Sun 02:03:39 AM 38.9119 -116.7214 75° East 476 548 29,000  Level Salt Lake Center
Sun 02:04:40 AM 38.9464 -116.5572 75° East 476 548 29,000  Level Salt Lake Center
Sun 02:05:40 AM 38.9800 -116.3944 75° East 473 544 29,000  Level Salt Lake Center
Sun 02:06:40 AM 39.0131 -116.2303 75° East 473 544 29,000  Level Salt Lake Center
Sun 02:07:41 AM 39.0461 -116.0661 75° East 473 544 29,000  Level Salt Lake Center
Sun 02:08:41 AM 39.0803 -115.8986 76° East 478 550 29,000  Level Salt Lake Center
Sun 02:09:42 AM 39.1131 -115.7308 75° East 482 555 29,000  Level Salt Lake Center
Sun 02:10:42 AM 39.1500 -115.5464 76° East 484 557 29,000  Level Salt Lake Center
Sun 02:11:42 AM 39.1819 -115.3844 76° East 486 559 29,000  Level Salt Lake Center
Sun 02:12:43 AM 39.2133 -115.2222 76° East 487 560 29,000  Level Salt Lake Center
Sun 02:13:43 AM 39.2447 -115.0594 76° East 488 562 29,000  Level Salt Lake Center
Sun 02:14:44 AM 39.2800 -114.8703 76° East 489 563 29,000 50 Level Salt Lake Center
Sun 02:15:44 AM 39.3114 -114.7056 76° East 491 565 29,100  Climbing Salt Lake Center
Sun 02:16:44 AM 39.3419 -114.5414 76° East 489 563 29,000 -50 Descending Salt Lake Center
Sun 02:17:45 AM 39.3772 -114.3597 76° East 488 562 29,000  Level Salt Lake Center
Sun 02:18:45 AM 39.4100 -114.1864 77° East 488 562 29,000  Level Salt Lake Center
Sun 02:19:45 AM 39.4411 -114.0164 77° East 481 554 29,000  Level Salt Lake Center
Sun 02:20:46 AM 39.4722 -113.8458 77° East 480 552 29,000  Level Salt Lake Center
Sun 02:21:46 AM 39.5033 -113.6750 77° East 480 552 29,000  Level Salt Lake Center
Sun 02:22:47 AM 39.5331 -113.5025 77° East 481 554 29,000  Level Salt Lake Center
Sun 02:23:47 AM 39.5636 -113.3303 77° East 482 555 29,000  Level Salt Lake Center
Sun 02:24:47 AM 39.5883 -113.1925 77° East 483 556 29,000  Level Salt Lake Center
Sun 02:25:48 AM 39.6178 -113.0197 78° East 483 556 29,000  Level Salt Lake Center
Sun 02:26:48 AM 39.6469 -112.8478 78° East 481 554 29,000  Level Salt Lake Center
Sun 02:27:49 AM 39.6756 -112.6783 77° East 477 549 29,000  Level Salt Lake Center
Sun 02:28:49 AM 39.7069 -112.4994 78° East 472 543 29,000  Level Salt Lake Center
Sun 02:29:49 AM 39.7356 -112.3308 78° East 474 545 29,000  Level Salt Lake Center
Sun 02:30:50 AM 39.7642 -112.1594 78° East 479 551 29,000 50 Level Salt Lake Center
Sun 02:31:50 AM 39.7933 -111.9872 78° East 483 556 29,100  Climbing Salt Lake Center
Sun 02:32:50 AM 39.8211 -111.8175 79° East 480 552 29,000 -50 Descending Salt Lake Center
Sun 02:33:51 AM 39.8469 -111.6472 78° East 478 550 29,000  Level Salt Lake Center
Sun 02:34:51 AM 39.8739 -111.4825 78° East 475 547 29,000  Level Salt Lake Center
Sun 02:35:52 AM 39.9000 -111.3231 78° East 472 543 29,000  Level Salt Lake Center
Sun 02:36:52 AM 39.9292 -111.1375 79° East 470 541 29,000  Level Salt Lake Center
Sun 02:37:52 AM 39.9536 -110.9775 79° East 469 540 29,000  Level Salt Lake Center
Sun 02:38:53 AM 39.9767 -110.8186 79° East 467 537 29,000  Level Salt Lake Center
Sun 02:39:53 AM 40.0006 -110.6581 79° East 469 540 29,000 50 Level Salt Lake Center
Sun 02:40:53 AM 40.0289 -110.4700 79° East 472 543 29,100  Climbing Salt Lake Center
Sun 02:41:54 AM 40.0533 -110.3086 79° East 473 544 29,000 -50 Descending Salt Lake Center
Sun 02:42:54 AM 40.0767 -110.1478 79° East 472 543 29,000  Level Salt Lake Center
Sun 02:43:55 AM 40.1039 -109.9614 80° East 469 540 29,000  Level Salt Lake Center
Sun 02:44:55 AM 40.1258 -109.8019 79° East 467 537 29,000  Level Salt Lake Center
Sun 02:45:55 AM 40.1489 -109.6406 79° East 469 540 29,000  Level Salt Lake Center
Sun 02:46:56 AM 40.1717 -109.4797 80° East 469 540 29,000  Level Salt Lake Center
Sun 02:47:56 AM 40.1978 -109.2911 80° East 470 541 29,000  Level Salt Lake Center
Sun 02:48:56 AM 40.2200 -109.1292 80° East 471 542 29,000  Level Salt Lake Center
Sun 02:49:57 AM 40.2419 -108.9697 80° East 467 537 29,000  Level Salt Lake Center
Sun 02:50:57 AM 40.2675 -108.7828 80° East 465 535 29,000  Level Salt Lake Center
Sun 02:51:57 AM 40.2892 -108.6219 80° East 466 536 29,000  Level Salt Lake Center
Sun 02:52:58 AM 40.3106 -108.4608 81° East 467 537 29,000  Level Salt Lake Center
Sun 02:53:58 AM 40.3294 -108.3011 79° East 467 537 29,000  Level Salt Lake Center
Sun 02:54:15 AM 40.3367 -108.2522 80° East 465 535 29,000  Level Denver Center
Sun 02:55:15 AM 40.3600 -108.0839 80° East 465 535 29,000  Level Denver Center
Sun 02:56:15 AM 40.3833 -107.9017 81° East 465 535 29,000  Level Denver Center
Sun 02:57:15 AM 40.4039 -107.7358 81° East 465 535 29,000  Level Denver Center
Sun 02:58:15 AM 40.4244 -107.5672 81° East 465 535 29,000  Level Denver Center
Sun 02:59:15 AM 40.4425 -107.4147 81° East 465 535 29,000  Level Denver Center
Sun 03:00:15 AM 40.4647 -107.2294 81° East 465 535 29,000  Level Denver Center
Sun 03:01:15 AM 40.4822 -107.0847 81° East 465 535 29,000  Level Denver Center
Sun 03:02:15 AM 40.5017 -106.9211 81° East 459 528 29,000  Level Denver Center
Sun 03:03:15 AM 40.5211 -106.7519 81° East 465 535 29,000  Level Denver Center
Sun 03:04:15 AM 40.5422 -106.5717 82° East 465 535 29,000  Level Denver Center
Sun 03:05:15 AM 40.5611 -106.4022 80° East 470 541 29,000  Level Denver Center
Sun 03:06:15 AM 40.5817 -106.2408 85° East 462 532 29,000  Level Denver Center
Sun 03:07:15 AM 40.5917 -106.0906 82° East 457 526 29,000  Level Denver Center
Sun 03:08:15 AM 40.6119 -105.9072 82° East 452 520 29,000  Level Denver Center
Sun 03:09:15 AM 40.6297 -105.7428 83° East 457 526 29,000  Level Denver Center
Sun 03:10:15 AM 40.6453 -105.5758 81° East 464 534 29,000  Level Denver Center
Sun 03:11:15 AM 40.6647 -105.4083 82° East 464 534 29,000  Level Denver Center
Sun 03:12:15 AM 40.6817 -105.2439 81° East 464 534 29,000  Level Denver Center
Sun 03:13:15 AM 40.7008 -105.0764 83° East 464 534 29,000 600 Level Denver Center
Sun 03:14:15 AM 40.7153 -104.9144 82° East 452 520 30,200 1,000 Climbing Denver Center
Sun 03:15:15 AM 40.7300 -104.7717 82° East 444 511 31,000 800 Climbing Denver Center
Sun 03:16:15 AM 40.7464 -104.6122 82° East 438 504 31,800 650 Climbing Denver Center
Sun 03:17:15 AM 40.7625 -104.4528 82° East 438 504 32,300 600 Climbing Denver Center
Sun 03:18:15 AM 40.7783 -104.2961 84° East 432 497 33,000 350 Climbing Denver Center
Sun 03:19:15 AM 40.7919 -104.1364 83° East 432 497 33,000  Level Denver Center
Sun 03:20:15 AM 40.8089 -103.9575 83° East 437 503 33,000  Level Denver Center
Sun 03:21:15 AM 40.8242 -103.8006 85° East 442 509 33,000  Level Denver Center
Sun 03:22:15 AM 40.8350 -103.6381 82° East 442 509 33,000  Level Denver Center
Sun 03:23:15 AM 40.8519 -103.4836 84° East 437 503 33,000  Level Denver Center
Sun 03:24:15 AM 40.8644 -103.3239 83° East 437 503 33,000 50 Level Denver Center
Sun 03:25:15 AM 40.8786 -103.1611 83° East 437 503 33,100 50 Climbing Denver Center
Sun 03:26:15 AM 40.8928 -103.0011 87° East 442 509 33,100 -50 Level Denver Center
Sun 03:27:15 AM 40.8986 -102.8522 82° East 456 525 33,000 -50 Descending Denver Center
Sun 03:28:15 AM 40.9158 -102.6781 84° East 439 505 33,000  Level Denver Center
Sun 03:29:15 AM 40.9272 -102.5208 85° East 433 498 33,000  Level Denver Center
Sun 03:30:15 AM 40.9369 -102.3772 84° East 434 499 33,000  Level Denver Center
Sun 03:31:15 AM 40.9497 -102.2142 85° East 429 494 33,000  Level Denver Center
Sun 03:32:15 AM 40.9619 -102.0372 84° East 434 499 33,000  Level Denver Center
Sun 03:33:15 AM 40.9744 -101.8797 84° East 434 499 33,000  Level Denver Center
Sun 03:34:15 AM 40.9853 -101.7358 85° East 434 499 33,000  Level Denver Center
Sun 03:35:15 AM 40.9953 -101.5728 84° East 434 499 33,000  Level Denver Center
Sun 03:36:15 AM 41.0086 -101.3983 85° East 439 505 33,000  Level Denver Center
Sun 03:37:15 AM 41.0200 -101.2322 86° East 439 505 33,000  Level Denver Center
Sun 03:38:15 AM 41.0281 -101.0883 85° East 444 511 33,000  Level Denver Center
Sun 03:39:15 AM 41.0389 -100.9250 85° East 444 511 33,000  Level Denver Center
Sun 03:40:15 AM 41.0511 -100.7475 86° East 449 517 33,000  Level Denver Center
Sun 03:41:15 AM 41.0597 -100.5869 85° East 443 510 33,000  Level Denver Center
Sun 03:42:15 AM 41.0703 -100.4261 85° East 443 510 33,000  Level Denver Center
Sun 03:43:15 AM 41.0792 -100.2792 85° East 448 516 33,000  Level Denver Center
Sun 03:44:15 AM 41.0892 -100.1183 86° East 443 510 33,000  Level Denver Center
Sun 03:45:15 AM 41.0978 -99.9383 85° East 443 510 33,000  Level Denver Center
Sun 03:47:05 AM 41.1144 -99.6569 87° East 449 517 33,000  Level Minneapolis Center
Sun 03:48:05 AM 41.1225 -99.4786 86° East 449 517 33,000  Level Minneapolis Center
Sun 03:49:05 AM 41.1314 -99.3169 86° East 438 504 33,000  Level Minneapolis Center
Sun 03:50:05 AM 41.1400 -99.1553 87° East 438 504 33,000  Level Minneapolis Center
Sun 03:51:05 AM 41.1453 -99.0097 88° East 438 504 33,000  Level Minneapolis Center
Sun 03:52:05 AM 41.1492 -98.8506 85° East 438 504 33,000  Level Minneapolis Center
Sun 03:53:05 AM 41.1589 -98.6969 87° East 432 497 33,000 -450 Level Minneapolis Center
Sun 03:54:05 AM 41.1644 -98.5350 85° East 432 497 32,100 -1,400 Descending Minneapolis Center
Sun 03:55:05 AM 41.1758 -98.3761 87° East 432 497 30,200 -1,550 Descending Minneapolis Center
Sun 03:56:05 AM 41.1831 -98.2142 88° East 432 497 29,000 -600 Descending Minneapolis Center
Sun 03:57:05 AM 41.1881 -98.0492 88° East 443 510 29,000  Level Minneapolis Center
Sun 03:58:05 AM 41.1931 -97.8814 87° East 443 510 29,000 50 Level Minneapolis Center
Sun 03:59:05 AM 41.1994 -97.7164 87° East 443 510 29,100  Climbing Minneapolis Center
Sun 04:00:05 AM 41.2058 -97.5544 87° East 443 510 29,000 -50 Descending Minneapolis Center
Sun 04:01:05 AM 41.2125 -97.3756 89° East 443 510 29,000  Level Minneapolis Center
Sun 04:02:05 AM 41.2136 -97.2242 87° East 443 510 29,000  Level Minneapolis Center
Sun 04:03:05 AM 41.2192 -97.0619 88° East 443 510 29,000  Level Minneapolis Center
Sun 04:04:05 AM 41.2222 -96.9050 88° East 437 503 29,000  Level Minneapolis Center
Sun 04:05:05 AM 41.2269 -96.7453 88° East 437 503 29,000  Level Minneapolis Center
Sun 04:06:05 AM 41.2319 -96.5803 88° East 437 503 29,000  Level Minneapolis Center
Sun 04:07:05 AM 41.2361 -96.4261 83° East 437 503 29,000  Level Minneapolis Center
Sun 04:08:05 AM 41.2511 -96.2614 92° East 437 503 29,000  Level Minneapolis Center
Sun 04:09:05 AM 41.2467 -96.1042 86° East 437 503 29,000  Level Minneapolis Center
Sun 04:10:05 AM 41.2544 -95.9444 88° East 437 503 29,000  Level Minneapolis Center
Sun 04:11:05 AM 41.2581 -95.7847 92° East 437 503 29,000  Level Minneapolis Center
Sun 04:12:05 AM 41.2536 -95.6025 89° East 437 503 29,000  Level Minneapolis Center
Sun 04:13:05 AM 41.2567 -95.4344 90° East 442 509 29,000  Level Minneapolis Center
Sun 04:14:05 AM 41.2575 -95.2664 89° East 442 509 29,000  Level Minneapolis Center
Sun 04:15:05 AM 41.2603 -95.0956 89° East 447 514 29,000 50 Level Minneapolis Center
Sun 04:16:05 AM 41.2628 -94.9247 89° East 458 527 29,100  Climbing Minneapolis Center
Sun 04:17:05 AM 41.2650 -94.7567 88° East 458 527 29,000 -100 Descending Minneapolis Center
Sun 04:18:05 AM 41.2689 -94.5939 90° East 458 527 28,900  Descending Minneapolis Center
Sun 04:19:05 AM 41.2686 -94.4231 89° East 453 521 29,000 38 Climbing Minneapolis Center
Sun 04:20:45 AM 41.2706 -94.1383 90° East 460 529 29,000  Level Chicago Center
Sun 04:21:45 AM 41.2714 -93.9669 90° East 460 529 29,000  Level Chicago Center
Sun 04:22:45 AM 41.2719 -93.7931 89° East 460 529 29,000  Level Chicago Center
Sun 04:23:45 AM 41.2744 -93.6189 91° East 465 535 29,000 -50 Level Chicago Center
Sun 04:24:45 AM 41.2725 -93.4475 91° East 470 541 28,900  Descending Chicago Center
Sun 04:25:45 AM 41.2703 -93.2706 89° East 470 541 29,000 100 Climbing Chicago Center
Sun 04:26:45 AM 41.2722 -93.0856 91° East 481 554 29,100  Climbing Chicago Center
Sun 04:27:45 AM 41.2694 -92.9111 90° East 481 554 29,000 -50 Descending Chicago Center
Sun 04:28:45 AM 41.2689 -92.7261 90° East 481 554 29,000  Level Chicago Center
Sun 04:29:45 AM 41.2678 -92.5464 91° East 481 554 29,000  Level Chicago Center
Sun 04:30:45 AM 41.2653 -92.4053 91° East 481 554 29,000  Level Chicago Center
Sun 04:31:45 AM 41.2622 -92.2036 91° East 481 554 29,000 -50 Level Chicago Center
Sun 04:32:45 AM 41.2603 -92.0267 91° East 481 554 28,900  Descending Chicago Center
Sun 04:33:45 AM 41.2581 -91.8442 92° East 481 554 29,000 50 Climbing Chicago Center
Sun 04:34:45 AM 41.2536 -91.6617 90° East 481 554 29,000 50 Level Chicago Center
Sun 04:35:45 AM 41.2531 -91.4822 92° East 481 554 29,100  Climbing Chicago Center
Sun 04:36:45 AM 41.2478 -91.3053 92° East 481 554 29,000 -50 Descending Chicago Center
Sun 04:37:45 AM 41.2425 -91.1256 91° East 481 554 29,000  Level Chicago Center
Sun 04:38:45 AM 41.2408 -90.9489 91° East 481 554 29,000 50 Level Chicago Center
Sun 04:39:45 AM 41.2392 -90.7664 93° East 481 554 29,100 400 Climbing Chicago Center
Sun 04:40:45 AM 41.2328 -90.5814 92° East 481 554 29,800 650 Climbing Chicago Center
Sun 04:41:45 AM 41.2283 -90.3992 93° East 486 559 30,400 750 Climbing Chicago Center
Sun 04:42:45 AM 41.2217 -90.2083 92° East 503 579 31,300 750 Climbing Chicago Center
Sun 04:43:45 AM 41.2167 -90.0206 92° East 503 579 31,900 1,100 Climbing Chicago Center
Sun 04:44:45 AM 41.2114 -89.8356 92° East 503 579 33,500 1,000 Climbing Chicago Center
Sun 04:45:45 AM 41.2058 -89.6508 92° East 503 579 33,900 450 Climbing Chicago Center
Sun 04:46:45 AM 41.1997 -89.4631 94° East 503 579 34,400 400 Climbing Chicago Center
Sun 04:47:45 AM 41.1894 -89.2589 93° East 498 573 34,700 300 Climbing Chicago Center
Sun 04:48:45 AM 41.1828 -89.0742 94° East 498 573 35,000 150 Climbing Chicago Center
Sun 04:49:45 AM 41.1717 -88.8839 93° East 498 573 35,000  Level Chicago Center
Sun 04:50:45 AM 41.1647 -88.6961 93° East 498 573 35,000  Level Chicago Center
Sun 04:51:45 AM 41.1572 -88.5197 94° East 514 592 35,000  Level Chicago Center
Sun 04:52:45 AM 41.1472 -88.3269 93° East 519 597 35,000  Level Chicago Center
Sun 04:53:45 AM 41.1392 -88.1342 93° East 519 597 35,000  Level Chicago Center
Sun 04:54:45 AM 41.1308 -87.9467 93° East 514 592 35,000  Level Chicago Center
Sun 04:55:45 AM 41.1219 -87.7567 93° East 514 592 35,000  Level Chicago Center
Sun 04:56:45 AM 41.1131 -87.5667 95° East 514 592 35,000  Level Chicago Center
Sun 04:57:45 AM 41.1014 -87.3742 94° East 514 592 35,000  Level Chicago Center
Sun 04:58:45 AM 41.0917 -87.1844 94° East 519 597 35,000  Level Chicago Center
Sun 04:59:45 AM 41.0817 -86.9947 95° East 519 597 35,000  Level Chicago Center
Sun 05:00:45 AM 41.0686 -86.7803 94° East 519 597 35,000  Level Chicago Center
Sun 05:01:45 AM 41.0581 -86.5933 95° East 522 601 35,000  Level Chicago Center
Sun 05:02:45 AM 41.0447 -86.3956 94° East 522 601 35,000  Level Chicago Center
Sun 05:03:45 AM 41.0336 -86.2061 95° East 522 601 35,000  Level Chicago Center
Sun 05:04:45 AM 41.0197 -86.0169 96° East 522 601 35,000  Level Chicago Center
Sun 05:05:45 AM 41.0056 -85.8250 95° East 516 594 35,000  Level Chicago Center
Sun 05:06:45 AM 40.9933 -85.6331 95° East 521 600 35,000  Level Chicago Center
Sun 05:07:45 AM 40.9806 -85.4383 96° East 521 600 35,000  Level Chicago Center
Sun 05:10:10 AM 40.9450 -84.9931 96° East 521 600 35,000  Level Cleveland Center
Sun 05:11:10 AM 40.9311 -84.8078 96° East 516 594 35,000  Level Cleveland Center
Sun 05:12:10 AM 40.9169 -84.6200 96° East 511 588 35,000  Level Cleveland Center
Sun 05:13:10 AM 40.9025 -84.4350 96° East 511 588 35,000  Level Cleveland Center
Sun 05:14:10 AM 40.8861 -84.2417 96° East 517 595 35,000  Level Cleveland Center
Sun 05:15:10 AM 40.8711 -84.0486 96° East 525 604 35,000  Level Cleveland Center
Sun 05:16:10 AM 40.8558 -83.8611 95° East 525 604 35,000  Level Cleveland Center
Sun 05:17:10 AM 40.8425 -83.6683 97° East 525 604 35,000 -50 Level Cleveland Center
Sun 05:18:10 AM 40.8247 -83.4781 97° East 525 604 34,900 -50 Descending Cleveland Center
Sun 05:19:10 AM 40.8083 -83.2908 97° East 520 598 34,900 50 Level Cleveland Center
Sun 05:20:10 AM 40.7914 -83.1172 97° East 525 604 35,000 550 Climbing Cleveland Center
Sun 05:21:10 AM 40.7747 -82.9300 97° East 518 596 36,000 500 Climbing Cleveland Center
Sun 05:22:10 AM 40.7572 -82.7514 97° East 501 577 36,000  Level Cleveland Center
Sun 05:23:10 AM 40.7397 -82.5700 98° East 491 565 36,000  Level Cleveland Center
Sun 05:24:10 AM 40.7200 -82.3886 97° East 496 571 36,000  Level Cleveland Center
Sun 05:25:10 AM 40.7019 -82.2044 97° East 503 579 36,000  Level Cleveland Center
Sun 05:26:10 AM 40.6856 -82.0206 98° East 503 579 36,000  Level Cleveland Center
Sun 05:27:10 AM 40.6647 -81.8342 98° East 503 579 36,000  Level Cleveland Center
Sun 05:28:10 AM 40.6458 -81.6503 95° East 508 585 36,000  Level Cleveland Center
Sun 05:29:10 AM 40.6328 -81.4642 95° East 508 585 36,000  Level Cleveland Center
Sun 05:30:10 AM 40.6194 -81.2753 95° East 508 585 36,000  Level Cleveland Center
Sun 05:31:10 AM 40.6058 -81.0836 95° East 519 597 36,000  Level Cleveland Center
Sun 05:32:10 AM 40.5942 -80.8919 96° East 519 597 36,000  Level Cleveland Center
Sun 05:33:10 AM 40.5800 -80.7089 96° East 519 597 36,000  Level Cleveland Center
Sun 05:34:10 AM 40.5653 -80.5175 98° East 519 597 36,000  Level Cleveland Center
Sun 05:35:10 AM 40.5464 -80.3344 95° East 519 597 36,000  Level Cleveland Center
Sun 05:36:10 AM 40.5333 -80.1433 95° East 514 592 36,000  Level Cleveland Center
Sun 05:37:10 AM 40.5178 -79.9331 97° East 524 603 36,000  Level Cleveland Center
Sun 05:38:10 AM 40.4997 -79.7475 96° East 519 597 36,000  Level Cleveland Center
Sun 05:39:10 AM 40.4858 -79.5622 98° East 519 597 36,000  Level Cleveland Center
Sun 05:40:10 AM 40.4672 -79.3797 97° East 514 592 36,000 -50 Level Cleveland Center
Sun 05:41:10 AM 40.4486 -79.1917 97° East 514 592 35,900 -850 Descending Cleveland Center
Sun 05:42:10 AM 40.4317 -79.0092 97° East 514 592 34,300 -1,750 Descending Cleveland Center
Sun 05:43:10 AM 40.4142 -78.8214 96° East 514 592 32,400 -1,900 Descending Cleveland Center
Sun 05:44:10 AM 40.3986 -78.6392 98° East 514 592 30,500 -1,900 Descending Cleveland Center
Sun 05:45:10 AM 40.3789 -78.4544 97° East 514 592 28,600 -1,714 Descending Cleveland Center
Sun 05:46:44 AM 40.3522 -78.1769 98° East 500 575 26,100 -1,403 Descending New York Center
Sun 05:47:44 AM 40.3339 -78.0033 97° East 490 564 25,000 -550 Descending New York Center
Sun 05:48:44 AM 40.3172 -77.8300 97° East 484 557 25,000  Level New York Center
Sun 05:49:44 AM 40.3006 -77.6542 98° East 479 551 25,000  Level New York Center
Sun 05:50:44 AM 40.2811 -77.4833 98° East 479 551 25,000 -400 Level New York Center
Sun 05:51:44 AM 40.2633 -77.3158 99° East 474 545 24,200 -1,050 Descending New York Center
Sun 05:52:44 AM 40.2431 -77.1533 98° East 460 529 22,900 -1,200 Descending New York Center
Sun 05:53:44 AM 40.2267 -76.9914 98° East 455 524 21,800 -1,100 Descending New York Center
Sun 05:54:44 AM 40.2097 -76.8375 98° East 437 503 20,700 -1,200 Descending New York Center
Sun 05:55:44 AM 40.1928 -76.6811 99° East 426 490 19,400 -1,250 Descending New York Center
Sun 05:56:44 AM 40.1747 -76.5356 98° East 420 483 18,200 -1,200 Descending New York Center
Sun 05:57:44 AM 40.1589 -76.3903 98° East 407 468 17,000 -1,350 Descending New York Center
Sun 05:58:44 AM 40.1428 -76.2450 99° East 407 468 15,500 -1,450 Descending New York Center
Sun 05:59:44 AM 40.1275 -76.1217 100° East 392 451 14,100 -1,437 Descending New York Center
Sun 05:59:55 AM 40.1222 -76.0831 100° East 383 441 13,800 -1,742 Descending FAA TRACON SMA TRACON (SMA)
Sun 06:00:15 AM 40.1169 -76.0422 98° East 376 433 13,200 -1,756 Descending FAA TRACON SMA TRACON (SMA)
Sun 06:00:36 AM 40.1114 -75.9928 98° East 366 421 12,600 -1,650 Descending FAA TRACON SMA TRACON (SMA)
Sun 06:00:55 AM 40.1069 -75.9533 99° East 359 413 12,100 -1,200 Descending FAA TRACON SMA TRACON (SMA)
Sun 06:01:16 AM 40.1022 -75.9150 96° East 354 407 11,800 -750 Descending FAA TRACON SMA TRACON (SMA)
Sun 06:01:35 AM 40.0986 -75.8697 102° East 348 400 11,600 -1,200 Descending FAA TRACON SMA TRACON (SMA)
Sun 06:01:56 AM 40.0922 -75.8308 99° East 340 391 11,000 -1,500 Descending FAA TRACON SMA TRACON (SMA)
Sun 06:02:15 AM 40.0881 -75.7953 99° East 331 381 10,600 -1,200 Descending FAA TRACON SMA TRACON (SMA)
Sun 06:02:36 AM 40.0825 -75.7506 96° East 325 374 10,200 -1,350 Descending FAA TRACON SMA TRACON (SMA)
Sun 06:02:55 AM 40.0797 -75.7153 91° East 325 374 9,700 -1,350 Descending FAA TRACON SMA TRACON (SMA)
Sun 06:03:16 AM 40.0792 -75.6797 83° East 316 364 9,300 -1,200 Descending FAA TRACON SMA TRACON (SMA)
Sun 06:03:35 AM 40.0831 -75.6358 84° East 314 361 8,900 -1,692 Descending FAA TRACON SMA TRACON (SMA)
Sun 06:03:55 AM 40.0858 -75.6022 84° East 315 362 8,200 -1,463 Descending FAA TRACON SMA TRACON (SMA)
Sun 06:04:16 AM 40.0889 -75.5658 84° East 316 364 7,900 -1,050 Descending FAA TRACON SMA TRACON (SMA)
Sun 06:04:35 AM 40.0914 -75.5356 83° East 312 359 7,500 -1,650 Descending FAA TRACON SMA TRACON (SMA)
Sun 06:04:56 AM 40.0956 -75.4889 82° East 310 357 6,800 -1,650 Descending FAA TRACON SMA TRACON (SMA)
Sun 06:05:15 AM 40.0992 -75.4556 84° East 309 356 6,400 -1,350 Descending FAA TRACON SMA TRACON (SMA)
Sun 06:05:36 AM 40.1017 -75.4222 83° East 310 357 5,900 -1,800 Descending FAA TRACON SMA TRACON (SMA)
Sun 06:05:55 AM 40.1061 -75.3772 92° East 308 354 5,200 -1,650 Descending FAA TRACON SMA TRACON (SMA)
Sun 06:06:16 AM 40.1050 -75.3433 97° East 311 358 4,800 -1,200 Descending FAA TRACON SMA TRACON (SMA)
Sun 06:06:35 AM 40.1022 -75.3133 112° Southeast 291 335 4,400 -1,050 Descending FAA TRACON SMA TRACON (SMA)
Sun 06:06:56 AM 40.0897 -75.2739 114° Southeast 282 325 4,100 -600 Descending FAA TRACON SMA TRACON (SMA)
Sun 06:07:15 AM 40.0803 -75.2467 114° Southeast 269 310 4,000 -600 Descending FAA TRACON SMA TRACON (SMA)
Sun 06:07:36 AM 40.0689 -75.2136 112° Southeast 262 302 3,700 -900 Descending FAA TRACON SMA TRACON (SMA)
Sun 06:07:55 AM 40.0606 -75.1864 132° Southeast 250 288 3,400 -900 Descending FAA TRACON SMA TRACON (SMA)
Sun 06:08:16 AM 40.0472 -75.1672 164° South 226 260 3,100 -750 Descending FAA TRACON SMA TRACON (SMA)
Sun 06:08:35 AM 40.0333 -75.1619 160° South 200 230 2,900 -900 Descending FAA TRACON SMA TRACON (SMA)
Sun 06:08:56 AM 40.0128 -75.1519 159° South 188 216 2,500 -1,171 Descending FAA TRACON SMA TRACON (SMA)
Sun 06:09:16 AM 39.9975 -75.1442 195° South 187 215 2,100 -447 Descending FAA TRACON SMA TRACON (SMA)
Sun 06:12:44 AM 39.8850 -75.1833 180° South 129 148 800 -368 Descending New York Center
Sun 06:12:48 AM 39.8833 -75.1833 253° West 140 161 800 -500 Level Philadelphia TRACON
Sun 06:12:56 AM 39.8825 -75.1869 254° West 133 153 700 -667 Descending FAA TRACON SMA TRACON (SMA)
Sun 06:13:15 AM 39.8789 -75.2036 257° West 136 157 500 -750 Descending FAA TRACON SMA TRACON (SMA)
Sun 06:13:36 AM 39.8761 -75.2189 253° West 139 160 200 -585 Descending FAA TRACON SMA TRACON (SMA)
Sun 06:13:56 AM 39.8753 -75.2225 360° North 139 160 100 -150 Descending FAA TRACON SMA TRACON (SMA)
Sun 06:14:16 AM 39.8753 -75.2225 360° North 139 160 100  Level FAA TRACON SMA TRACON (SMA)

Login

Don't have an account? Register now (free) for customized features, flight alerts, and more!